createdAt,value
2022-11-19T00:01:28.599Z,5.78
2022-11-19T00:03:55.796Z,6.50
2022-11-19T00:06:25.156Z,5.32
2022-11-19T00:08:53.028Z,7.59
2022-11-19T00:11:41.345Z,7.18
2022-11-19T00:14:14.869Z,7.07
2022-11-19T00:16:42.061Z,6.27
2022-11-19T00:19:10.657Z,7.30
2022-11-19T00:21:38.206Z,7.32
2022-11-19T00:24:05.302Z,7.07
2022-11-19T00:26:32.055Z,6.88
2022-11-19T00:28:58.890Z,7.58
2022-11-19T00:31:25.689Z,7.44
2022-11-19T00:33:54.633Z,8.36
2022-11-19T00:36:23.307Z,7.95
2022-11-19T00:38:50.407Z,6.81
2022-11-19T00:41:17.784Z,8.61
2022-11-19T00:43:47.615Z,9.78
2022-11-19T00:46:15.111Z,7.79
2022-11-19T00:48:42.480Z,8.20
2022-11-19T00:51:10.440Z,8.99
2022-11-19T00:53:38.479Z,7.46
2022-11-19T00:56:09.950Z,7.45
2022-11-19T00:58:38.724Z,8.14
2022-11-19T01:01:06.897Z,7.96
2022-11-19T01:03:34.311Z,7.42
2022-11-19T01:06:01.613Z,7.53
2022-11-19T01:08:28.393Z,8.01
2022-11-19T01:10:55.356Z,7.89
2022-11-19T01:13:38.133Z,7.70
2022-11-19T01:16:08.358Z,8.28
2022-11-19T01:18:36.964Z,8.64
2022-11-19T01:21:04.810Z,6.58
2022-11-19T01:23:31.957Z,7.73
2022-11-19T01:25:58.703Z,8.56
2022-11-19T01:28:25.494Z,7.92
2022-11-19T01:30:53.622Z,6.58
2022-11-19T01:33:23.378Z,7.44
2022-11-19T01:35:59.541Z,7.78
2022-11-19T01:38:27.044Z,7.57
2022-11-19T01:40:54.427Z,6.90
2022-11-19T01:43:39.044Z,7.31
2022-11-19T01:46:07.241Z,7.45
2022-11-19T01:48:38.519Z,6.32
2022-11-19T01:51:10.230Z,7.68
2022-11-19T01:53:37.314Z,7.95
2022-11-19T01:56:07.324Z,8.13
2022-11-19T01:58:44.088Z,8.78
2022-11-19T02:01:11.125Z,8.59
2022-11-19T02:03:39.769Z,9.30
2022-11-19T02:06:08.800Z,9.77
2022-11-19T02:08:44.456Z,8.54
2022-11-19T02:11:26.079Z,9.14
2022-11-19T02:14:14.210Z,9.38
2022-11-19T02:16:53.919Z,6.93
2022-11-19T02:19:29.666Z,6.12
2022-11-19T02:22:11.223Z,6.11
2022-11-19T02:24:53.989Z,7.67
2022-11-19T02:27:33.020Z,5.52
2022-11-19T02:30:05.006Z,7.31
2022-11-19T02:32:40.614Z,5.95
2022-11-19T02:35:17.557Z,7.74
2022-11-19T02:38:22.772Z,6.10
2022-11-19T02:41:37.721Z,6.92
2022-11-19T02:44:54.561Z,4.97
2022-11-19T02:47:49.418Z,5.75
2022-11-19T02:50:23.997Z,5.89
2022-11-19T02:52:51.580Z,7.05
2022-11-19T02:55:20.986Z,5.41
2022-11-19T02:58:11.041Z,5.04
2022-11-19T03:01:07.966Z,4.76
2022-11-19T03:03:54.805Z,6.04
2022-11-19T03:06:27.254Z,5.39
2022-11-19T03:08:54.835Z,7.32
2022-11-19T03:11:26.523Z,4.99
2022-11-19T03:14:18.690Z,6.69
2022-11-19T03:17:01.027Z,7.63
2022-11-19T03:19:34.087Z,6.96
2022-11-19T03:22:17.316Z,6.79
2022-11-19T03:24:51.045Z,6.50
2022-11-19T03:27:27.500Z,7.48
2022-11-19T03:29:57.965Z,6.64
2022-11-19T03:32:31.052Z,6.54
2022-11-19T03:35:02.475Z,5.71
2022-11-19T03:37:32.224Z,4.20
2022-11-19T03:40:03.030Z,5.40
2022-11-19T03:42:31.156Z,3.80
2022-11-19T03:45:09.431Z,6.93
2022-11-19T03:47:40.559Z,7.34
2022-11-19T03:50:19.065Z,6.89
2022-11-19T03:52:45.969Z,6.78
2022-11-19T03:55:12.933Z,6.98
2022-11-19T03:57:40.345Z,7.80
2022-11-19T04:00:08.558Z,6.83
2022-11-19T04:02:41.378Z,5.87
2022-11-19T04:05:09.666Z,6.29
2022-11-19T04:07:36.904Z,6.92
2022-11-19T04:10:03.953Z,5.43
2022-11-19T04:12:30.701Z,6.37
2022-11-19T04:14:57.457Z,5.60
2022-11-19T04:17:24.779Z,4.37
2022-11-19T04:19:51.889Z,7.22
2022-11-19T04:22:18.561Z,7.03
2022-11-19T04:24:45.269Z,7.82
2022-11-19T04:27:12.040Z,4.23
2022-11-19T04:29:38.788Z,6.89
2022-11-19T04:32:05.712Z,8.30
2022-11-19T04:34:32.525Z,9.10
2022-11-19T04:36:59.256Z,8.02
2022-11-19T04:39:27.076Z,7.10
2022-11-19T04:41:53.853Z,9.55
2022-11-19T04:44:20.585Z,9.58
2022-11-19T04:46:47.254Z,7.59
2022-11-19T04:49:14.056Z,8.50
2022-11-19T04:51:40.875Z,7.80
2022-11-19T04:54:08.963Z,7.95
2022-11-19T04:56:36.936Z,7.15
2022-11-19T04:59:04.786Z,7.07
2022-11-19T05:01:31.801Z,6.22
2022-11-19T05:03:58.648Z,6.23
2022-11-19T05:06:26.058Z,6.17
2022-11-19T05:08:52.764Z,5.66
2022-11-19T05:11:19.530Z,6.71
2022-11-19T05:13:46.321Z,5.96
2022-11-19T05:16:13.388Z,6.37
2022-11-19T05:18:41.039Z,6.92
2022-11-19T05:21:07.749Z,5.20
2022-11-19T05:23:34.459Z,8.68
2022-11-19T05:26:01.313Z,5.53
2022-11-19T05:28:38.036Z,6.99
2022-11-19T05:31:06.305Z,6.94
2022-11-19T05:33:34.523Z,5.73
2022-11-19T05:36:01.673Z,7.17
2022-11-19T05:38:28.417Z,6.26
2022-11-19T05:40:55.680Z,6.54
2022-11-19T05:43:22.734Z,7.00
2022-11-19T05:45:49.447Z,6.12
2022-11-19T05:48:16.108Z,5.40
2022-11-19T05:50:43.049Z,6.44
2022-11-19T05:53:10.871Z,7.48
2022-11-19T05:55:37.988Z,6.89
2022-11-19T05:58:04.662Z,8.49
2022-11-19T06:00:31.386Z,8.34
2022-11-19T06:02:58.187Z,8.88
2022-11-19T06:05:25.696Z,8.55
2022-11-19T06:07:52.536Z,8.06
2022-11-19T06:10:19.255Z,6.51
2022-11-19T06:12:46.379Z,7.91
2022-11-19T06:15:14.423Z,7.43
2022-11-19T06:17:41.789Z,7.45
2022-11-19T06:20:11.046Z,8.00
2022-11-19T06:22:38.696Z,7.13
2022-11-19T06:25:07.863Z,7.06
2022-11-19T06:27:34.999Z,7.13
2022-11-19T06:30:02.143Z,7.92
2022-11-19T06:32:29.048Z,7.01
2022-11-19T06:34:56.223Z,6.78
2022-11-19T06:37:23.644Z,7.28
2022-11-19T06:39:50.331Z,6.50
2022-11-19T06:42:46.094Z,8.78
2022-11-19T06:45:15.164Z,9.46
2022-11-19T06:47:42.968Z,6.74
2022-11-19T06:50:11.616Z,8.81
2022-11-19T06:52:38.476Z,9.93
2022-11-19T06:55:05.648Z,8.91
2022-11-19T06:57:32.481Z,8.14
2022-11-19T06:59:59.150Z,8.80
2022-11-19T07:02:26.226Z,8.51
2022-11-19T07:04:53.244Z,8.99
2022-11-19T07:07:19.988Z,6.01
2022-11-19T07:09:46.754Z,7.85
2022-11-19T07:12:13.567Z,9.23
2022-11-19T07:14:41.100Z,9.14
2022-11-19T07:17:07.792Z,11.13
2022-11-19T07:19:34.601Z,10.96
2022-11-19T07:22:01.346Z,9.29
2022-11-19T07:24:28.569Z,10.95
2022-11-19T07:26:57.247Z,10.80
2022-11-19T07:29:24.017Z,10.50
2022-11-19T07:31:53.240Z,10.91
2022-11-19T07:34:20.713Z,10.72
2022-11-19T07:36:48.420Z,10.12
2022-11-19T07:39:15.097Z,9.62
2022-11-19T07:42:00.557Z,7.21
2022-11-19T07:44:27.589Z,9.61
2022-11-19T07:46:54.284Z,8.00
2022-11-19T07:49:21.629Z,12.32
2022-11-19T07:51:48.844Z,13.57
2022-11-19T07:54:15.724Z,11.51
2022-11-19T07:56:42.847Z,11.13
2022-11-19T07:59:10.780Z,11.65
2022-11-19T08:01:38.324Z,11.04
2022-11-19T08:04:05.337Z,10.17
2022-11-19T08:06:34.460Z,10.88
2022-11-19T08:09:02.893Z,8.39
2022-11-19T08:11:30.245Z,9.70
2022-11-19T08:14:01.508Z,11.96
2022-11-19T08:16:47.466Z,13.79
2022-11-19T08:19:16.529Z,11.59
2022-11-19T08:21:45.530Z,14.71
2022-11-19T08:24:14.042Z,15.48
2022-11-19T08:26:41.915Z,13.67
2022-11-19T08:29:15.735Z,18.03
2022-11-19T08:31:44.559Z,14.53
2022-11-19T08:34:13.304Z,13.23
2022-11-19T08:36:41.038Z,14.72
2022-11-19T08:39:07.958Z,11.88
2022-11-19T08:41:53.476Z,19.04
2022-11-19T08:44:20.966Z,19.82
2022-11-19T08:46:48.007Z,19.19
2022-11-19T08:49:14.812Z,19.71
2022-11-19T08:51:43.071Z,19.92
2022-11-19T08:54:10.281Z,12.48
2022-11-19T08:56:38.148Z,10.24
2022-11-19T08:59:05.286Z,13.10
2022-11-19T09:01:32.011Z,14.10
2022-11-19T09:03:59.624Z,16.17
2022-11-19T09:06:28.484Z,18.42
2022-11-19T09:08:55.487Z,14.93
2022-11-19T09:11:23.243Z,11.03
2022-11-19T09:13:50.002Z,10.22
2022-11-19T09:16:17.236Z,10.08
2022-11-19T09:18:44.885Z,11.77
2022-11-19T09:21:12.787Z,10.89
2022-11-19T09:23:41.739Z,8.60
2022-11-19T09:26:14.894Z,9.28
2022-11-19T09:28:42.868Z,9.29
2022-11-19T09:31:16.706Z,13.05
2022-11-19T09:33:46.528Z,20.33
2022-11-19T09:36:14.043Z,15.81
2022-11-19T09:38:42.070Z,13.93
2022-11-19T09:41:17.667Z,17.25
2022-11-19T09:44:05.658Z,17.67
2022-11-19T09:46:35.121Z,11.10
2022-11-19T09:49:09.914Z,19.53
2022-11-19T09:51:39.200Z,15.02
2022-11-19T09:54:17.070Z,18.02
2022-11-19T09:56:46.936Z,20.15
2022-11-19T09:59:25.961Z,19.41
2022-11-19T10:01:54.200Z,16.80
2022-11-19T10:04:33.522Z,16.82
2022-11-19T10:07:21.498Z,15.36
2022-11-19T10:10:23.076Z,10.95
2022-11-19T10:13:15.603Z,13.08
2022-11-19T10:16:08.541Z,11.13
2022-11-19T10:18:59.251Z,12.35
2022-11-19T10:21:42.091Z,12.48
2022-11-19T10:24:38.133Z,11.27
2022-11-19T10:27:29.630Z,12.25
2022-11-19T10:30:00.924Z,12.81
2022-11-19T10:32:35.805Z,12.96
2022-11-19T10:35:17.975Z,16.81
2022-11-19T10:38:05.490Z,15.43
2022-11-19T10:40:42.696Z,15.71
2022-11-19T10:43:32.629Z,14.72
2022-11-19T10:46:03.061Z,15.04
2022-11-19T10:48:46.352Z,12.25
2022-11-19T10:51:17.374Z,13.80
2022-11-19T10:53:46.082Z,12.37
2022-11-19T10:56:17.492Z,12.73
2022-11-19T10:58:52.955Z,13.89
2022-11-19T11:01:31.594Z,9.35
2022-11-19T11:04:05.647Z,11.97
2022-11-19T11:06:54.071Z,13.51
2022-11-19T11:09:37.276Z,11.88
2022-11-19T11:12:31.638Z,10.78
2022-11-19T11:15:14.829Z,12.11
2022-11-19T11:17:43.914Z,12.48
2022-11-19T11:20:17.146Z,11.70
2022-11-19T11:22:48.544Z,10.22
2022-11-19T11:25:27.001Z,11.42
2022-11-19T11:28:24.099Z,12.43
2022-11-19T11:30:56.800Z,10.77
2022-11-19T11:33:53.928Z,12.82
2022-11-19T11:36:25.477Z,11.99
2022-11-19T11:38:55.789Z,10.26
2022-11-19T11:44:23.677Z,12.19
2022-11-19T11:46:52.666Z,10.77
2022-11-19T11:49:36.660Z,11.58
2022-11-19T11:52:09.607Z,11.66
2022-11-19T11:54:38.105Z,11.91
2022-11-19T11:57:18.609Z,13.65
2022-11-19T11:59:46.430Z,11.20
2022-11-19T12:02:32.649Z,10.34
2022-11-19T12:05:03.304Z,11.22
2022-11-19T12:07:40.979Z,11.93
2022-11-19T12:10:14.650Z,11.94
2022-11-19T12:12:50.926Z,8.32
2022-11-19T12:15:44.661Z,12.62
2022-11-19T12:18:20.928Z,11.36
2022-11-19T12:21:04.342Z,12.71
2022-11-19T12:23:50.572Z,11.65
2022-11-19T12:26:51.958Z,11.69
2022-11-19T12:29:30.975Z,11.33
2022-11-19T12:32:36.715Z,10.99
2022-11-19T12:35:15.781Z,12.37
2022-11-19T12:37:53.756Z,10.72
2022-11-19T12:40:34.027Z,12.36
2022-11-19T12:43:23.957Z,14.52
2022-11-19T12:46:12.489Z,14.53
2022-11-19T12:48:54.566Z,13.81
2022-11-19T12:51:27.278Z,12.55
2022-11-19T12:54:21.388Z,12.43
2022-11-19T12:57:18.687Z,13.31
2022-11-19T12:59:53.260Z,9.69
2022-11-19T13:02:30.122Z,12.34
2022-11-19T13:05:27.754Z,13.65
2022-11-19T13:08:21.956Z,13.52
2022-11-19T13:10:54.861Z,11.21
2022-11-19T13:13:29.489Z,10.36
2022-11-19T13:16:02.321Z,11.80
2022-11-19T13:18:32.433Z,12.02
2022-11-19T13:21:36.993Z,13.36
2022-11-19T13:24:19.255Z,14.68
2022-11-19T13:26:46.646Z,10.97
2022-11-19T13:29:14.256Z,11.60
2022-11-19T13:32:23.041Z,14.59
2022-11-19T13:35:14.595Z,13.27
2022-11-19T13:37:41.301Z,11.51
2022-11-19T13:40:20.420Z,11.64
2022-11-19T13:46:18.233Z,11.31
2022-11-19T13:48:57.911Z,11.35
2022-11-19T13:51:49.754Z,10.85
2022-11-19T13:54:39.043Z,11.42
2022-11-19T13:57:08.442Z,12.46
2022-11-19T13:59:45.830Z,10.03
2022-11-19T14:02:18.851Z,10.01
2022-11-19T14:05:04.336Z,10.63
2022-11-19T14:07:44.696Z,11.85
2022-11-19T14:10:14.880Z,12.37
2022-11-19T14:12:54.211Z,10.29
2022-11-19T14:16:14.866Z,12.17
2022-11-19T14:19:07.445Z,12.05
2022-11-19T14:21:52.606Z,10.95
2022-11-19T14:24:45.364Z,12.27
2022-11-19T14:27:27.178Z,13.00
2022-11-19T14:29:58.650Z,11.37
2022-11-19T14:32:30.023Z,12.17
2022-11-19T14:35:03.793Z,12.53
2022-11-19T14:37:36.795Z,12.03
2022-11-19T14:40:09.617Z,11.82
2022-11-19T14:43:00.577Z,12.33
2022-11-19T14:45:27.349Z,13.35
2022-11-19T14:48:03.274Z,14.04
2022-11-19T14:50:32.308Z,13.41
2022-11-19T14:53:02.263Z,12.58
2022-11-19T14:55:31.495Z,12.45
2022-11-19T14:58:03.853Z,13.24
2022-11-19T15:00:40.783Z,13.27
2022-11-19T15:03:22.367Z,13.91
2022-11-19T15:05:49.735Z,13.42
2022-11-19T15:08:16.803Z,12.94
2022-11-19T15:10:48.611Z,13.30
2022-11-19T15:13:22.026Z,13.35
2022-11-19T15:15:52.881Z,12.66
2022-11-19T15:18:31.546Z,11.88
2022-11-19T15:21:01.904Z,11.06
2022-11-19T15:23:45.993Z,13.21
2022-11-19T15:26:36.644Z,12.19
2022-11-19T15:29:24.419Z,12.58
2022-11-19T15:32:28.776Z,12.56
2022-11-19T15:35:33.918Z,12.94
2022-11-19T15:38:17.032Z,12.24
2022-11-19T15:40:49.602Z,11.69
2022-11-19T15:43:24.085Z,12.94
2022-11-19T15:46:11.396Z,12.82
2022-11-19T15:49:07.767Z,13.39
2022-11-19T15:51:58.823Z,13.15
2022-11-19T15:54:34.093Z,12.86
2022-11-19T15:57:14.464Z,13.18
2022-11-19T15:59:42.658Z,12.13
2022-11-19T16:02:41.265Z,11.94
2022-11-19T16:05:20.790Z,12.37
2022-11-19T16:07:51.918Z,11.94
2022-11-19T16:10:42.666Z,11.91
2022-11-19T16:13:44.241Z,11.63
2022-11-19T16:16:44.287Z,12.01
2022-11-19T16:19:16.163Z,11.87
2022-11-19T16:21:51.267Z,11.49
2022-11-19T16:24:39.569Z,11.57
2022-11-19T16:27:10.798Z,11.11
2022-11-19T16:29:42.739Z,11.93
2022-11-19T16:32:18.323Z,9.65
2022-11-19T16:34:46.291Z,11.65
2022-11-19T16:37:19.394Z,11.10
2022-11-19T16:39:52.446Z,10.46
2022-11-19T16:42:26.985Z,10.68
2022-11-19T16:45:06.065Z,10.92
2022-11-19T16:47:36.908Z,11.78
2022-11-19T16:50:24.850Z,12.19
2022-11-19T16:52:51.596Z,10.92
2022-11-19T16:55:18.645Z,11.14
2022-11-19T16:58:16.495Z,10.67
2022-11-19T17:00:48.493Z,10.26
2022-11-19T17:03:20.959Z,10.32
2022-11-19T17:05:50.985Z,10.70
2022-11-19T17:08:23.907Z,10.75
2022-11-19T17:11:35.206Z,11.47
2022-11-19T17:14:23.885Z,12.23
2022-11-19T17:16:54.136Z,12.51
2022-11-19T17:19:25.517Z,11.23
2022-11-19T17:22:02.760Z,12.19
2022-11-19T17:24:40.335Z,11.91
2022-11-19T17:27:07.384Z,11.51
2022-11-19T17:29:34.750Z,11.53
2022-11-19T17:32:03.961Z,11.54
2022-11-19T17:34:33.388Z,11.02
2022-11-19T17:37:00.938Z,12.16
2022-11-19T17:39:28.730Z,12.12
2022-11-19T17:42:15.044Z,12.05
2022-11-19T17:44:42.253Z,11.75
2022-11-19T17:47:23.060Z,10.36
2022-11-19T17:49:51.810Z,8.08
2022-11-19T17:52:23.445Z,11.36
2022-11-19T17:54:52.637Z,10.07
2022-11-19T17:57:19.442Z,12.30
2022-11-19T17:59:47.096Z,11.78
2022-11-19T18:02:16.751Z,11.46
2022-11-19T18:04:45.073Z,11.89
2022-11-19T18:07:12.957Z,9.43
2022-11-19T18:09:41.108Z,10.26
2022-11-19T18:12:14.229Z,11.73
2022-11-19T18:14:41.312Z,11.94
2022-11-19T18:17:11.939Z,12.06
2022-11-19T18:19:38.882Z,12.69
2022-11-19T18:22:06.503Z,12.53
2022-11-19T18:24:33.949Z,12.76
2022-11-19T18:27:01.350Z,11.42
2022-11-19T18:29:31.269Z,11.66
2022-11-19T18:31:58.164Z,10.75
2022-11-19T18:34:25.378Z,10.42
2022-11-19T18:36:52.281Z,11.92
2022-11-19T18:39:19.884Z,11.49
2022-11-19T18:41:47.597Z,11.32
2022-11-19T18:44:34.631Z,10.93
2022-11-19T18:47:13.288Z,11.18
2022-11-19T18:49:40.462Z,11.10
2022-11-19T18:52:14.585Z,11.63
2022-11-19T18:54:41.477Z,12.57
2022-11-19T18:57:09.961Z,11.55
2022-11-19T18:59:37.234Z,11.87
2022-11-19T19:02:05.100Z,10.51
2022-11-19T19:04:32.850Z,11.30
2022-11-19T19:06:59.674Z,11.55
2022-11-19T19:09:26.642Z,12.08
2022-11-19T19:12:13.868Z,11.83
2022-11-19T19:14:42.931Z,12.41
2022-11-19T19:17:10.668Z,12.26
2022-11-19T19:19:38.694Z,10.78
2022-11-19T19:22:07.093Z,9.84
2022-11-19T19:24:36.560Z,10.00
2022-11-19T19:27:05.366Z,10.70
2022-11-19T19:29:33.010Z,10.09
2022-11-19T19:31:59.830Z,12.13
2022-11-19T19:34:28.364Z,12.32
2022-11-19T19:36:55.076Z,9.70
2022-11-19T19:39:22.247Z,11.42
2022-11-19T19:41:49.876Z,10.92
2022-11-19T19:44:17.184Z,10.83
2022-11-19T19:46:43.920Z,10.66
2022-11-19T19:49:10.713Z,11.44
2022-11-19T19:51:37.425Z,10.95
2022-11-19T19:54:05.215Z,10.93
2022-11-19T19:56:33.610Z,10.63
2022-11-19T19:59:01.267Z,10.16
2022-11-19T20:01:35.956Z,10.68
2022-11-19T20:04:04.776Z,10.55
2022-11-19T20:06:33.388Z,10.80
2022-11-19T20:09:03.163Z,9.99
2022-11-19T20:11:34.600Z,9.91
2022-11-19T20:14:01.536Z,10.42
2022-11-19T20:16:30.211Z,10.99
2022-11-19T20:18:59.317Z,9.26
2022-11-19T20:21:36.278Z,10.83
2022-11-19T20:24:10.327Z,9.92
2022-11-19T20:26:39.402Z,9.48
2022-11-19T20:29:08.873Z,10.08
2022-11-19T20:31:36.719Z,9.52
2022-11-19T20:34:07.658Z,9.31
2022-11-19T20:36:36.337Z,8.79
2022-11-19T20:39:03.787Z,9.36
2022-11-19T20:41:49.941Z,8.83
2022-11-19T20:44:22.714Z,9.42
2022-11-19T20:46:57.517Z,9.31
2022-11-19T20:49:29.550Z,9.53
2022-11-19T20:51:56.877Z,9.49
2022-11-19T20:54:24.798Z,9.70
2022-11-19T20:56:52.940Z,8.38
2022-11-19T20:59:22.412Z,10.06
2022-11-19T21:01:51.255Z,9.94
2022-11-19T21:04:20.356Z,8.99
2022-11-19T21:06:47.906Z,8.78
2022-11-19T21:09:15.930Z,6.98
2022-11-19T21:11:43.912Z,6.94
2022-11-19T21:14:12.138Z,7.05
2022-11-19T21:16:39.236Z,8.32
2022-11-19T21:19:06.338Z,7.75
2022-11-19T21:21:33.205Z,9.53
2022-11-19T21:24:00.626Z,10.39
2022-11-19T21:26:28.579Z,9.22
2022-11-19T21:28:57.770Z,7.19
2022-11-19T21:31:38.073Z,7.48
2022-11-19T21:34:11.803Z,7.87
2022-11-19T21:36:40.421Z,7.30
2022-11-19T21:39:08.127Z,6.84
2022-11-19T21:41:35.567Z,6.91
2022-11-19T21:44:04.545Z,9.26
2022-11-19T21:46:32.014Z,7.47
2022-11-19T21:48:58.952Z,8.40
2022-11-19T21:51:25.768Z,8.32
2022-11-19T21:53:55.201Z,8.03
2022-11-19T21:56:22.480Z,8.59
2022-11-19T21:58:49.665Z,7.48
2022-11-19T22:01:16.641Z,6.87
2022-11-19T22:03:43.704Z,7.56
2022-11-19T22:06:11.514Z,8.76
2022-11-19T22:08:40.838Z,8.43
2022-11-19T22:11:28.164Z,7.68
2022-11-19T22:13:59.645Z,8.56
2022-11-19T22:16:27.071Z,8.50
2022-11-19T22:18:54.038Z,8.42
2022-11-19T22:21:21.535Z,9.10
2022-11-19T22:23:48.660Z,9.61
2022-11-19T22:26:15.561Z,7.63
2022-11-19T22:28:42.348Z,9.05
2022-11-19T22:31:09.098Z,8.63
2022-11-19T22:33:39.508Z,7.85
2022-11-19T22:36:10.307Z,9.34
2022-11-19T22:38:38.655Z,7.79
2022-11-19T22:41:13.824Z,8.36
2022-11-19T22:43:41.630Z,7.17
2022-11-19T22:46:11.179Z,8.03
2022-11-19T22:48:38.922Z,6.69
2022-11-19T22:51:11.817Z,7.02
2022-11-19T22:53:39.314Z,8.36
2022-11-19T22:56:09.320Z,7.14
2022-11-19T22:58:38.568Z,7.98
2022-11-19T23:01:07.917Z,7.30
2022-11-19T23:03:35.211Z,6.79
2022-11-19T23:06:01.925Z,7.58
2022-11-19T23:08:29.044Z,6.61
2022-11-19T23:11:00.804Z,7.01
2022-11-19T23:13:32.215Z,8.06
2022-11-19T23:16:08.754Z,9.01
2022-11-19T23:18:41.817Z,6.52
2022-11-19T23:21:13.576Z,8.72
2022-11-19T23:23:40.434Z,6.66
2022-11-19T23:26:08.902Z,7.15
2022-11-19T23:28:37.401Z,7.08
2022-11-19T23:31:09.848Z,8.85
2022-11-19T23:33:37.521Z,7.09
2022-11-19T23:36:06.796Z,6.95
2022-11-19T23:38:38.221Z,6.63
2022-11-19T23:41:07.894Z,7.16
2022-11-19T23:43:35.282Z,6.76
2022-11-19T23:46:11.580Z,6.31
2022-11-19T23:48:39.652Z,6.72
2022-11-19T23:51:09.319Z,7.57
2022-11-19T23:53:36.324Z,8.13
2022-11-19T23:56:04.118Z,7.01
2022-11-19T23:58:31.062Z,7.53
